Time;durP1;ratioP1;P1;durP2;ratioP2;P2;SDS_P1;SDS_P2;PMS_P1;PMS_P2;Temp;Humidity;BMP_temperature;BMP_pressure;BME280_temperature;BME280_humidity;BME280_pressure;Samples;Min_cycle;Max_cycle;Signal;HPM_P1;HPM_P2
2021/11/26 00:01:08;;;;;;;54.83;24.90;;;1.90;81.10;;;-0.44;93.05;95057.84;4990860;28;20387;-64
2021/11/26 00:03:33;;;;;;;58.22;25.33;;;1.90;81.20;;;-0.44;93.07;95052.69;4992655;28;20218;-64
2021/11/26 00:05:59;;;;;;;57.25;24.95;;;1.80;81.10;;;-0.45;93.55;95059.63;4991826;28;20161;-64
2021/11/26 00:08:25;;;;;;;59.63;25.80;;;1.80;81.10;;;-0.45;92.98;95051.06;4980950;28;20057;-64
2021/11/26 00:10:51;;;;;;;58.00;25.88;;;1.90;81.20;;;-0.43;93.02;95054.31;4991391;28;20030;-64
2021/11/26 00:13:17;;;;;;;55.00;25.30;;;1.80;81.00;;;-0.45;93.49;95035.56;4978653;28;20053;-64
2021/11/26 00:15:42;;;;;;;55.22;25.00;;;1.80;81.20;;;-0.43;93.27;95020.72;4990889;28;20034;-64
2021/11/26 00:18:16;;;;;;;52.70;24.77;;;1.80;81.00;;;-0.45;92.81;95023.47;4991046;28;20054;-64
2021/11/26 00:20:42;;;;;;;52.53;23.80;;;1.80;80.80;;;-0.45;92.71;95020.88;4991914;28;20113;-64
2021/11/26 00:23:07;;;;;;;52.47;24.10;;;1.90;80.90;;;-0.45;92.46;95012.31;4990667;28;20470;-64
2021/11/26 00:25:34;;;;;;;52.83;24.50;;;1.80;80.30;;;-0.49;92.53;95005.81;4990602;28;20039;-64
2021/11/26 00:28:00;;;;;;;57.28;25.48;;;1.70;80.10;;;-0.51;92.74;95002.56;4991863;28;20038;-64
2021/11/26 00:30:26;;;;;;;57.72;25.48;;;1.80;80.40;;;-0.53;92.57;95002.72;4989960;28;20026;-64
2021/11/26 00:32:52;;;;;;;55.25;23.25;;;1.70;80.90;;;-0.55;92.45;95002.03;4976278;28;20414;-64
2021/11/26 00:35:18;;;;;;;49.53;22.45;;;1.70;80.60;;;-0.55;92.22;94996.06;4958468;28;20035;-64
2021/11/26 00:37:44;;;;;;;50.03;21.95;;;1.70;80.40;;;-0.57;92.47;95003.97;4991806;28;20034;-64
2021/11/26 00:40:10;;;;;;;56.22;24.20;;;1.70;80.60;;;-0.58;92.91;95007.50;4990531;28;20054;-64
2021/11/26 00:42:39;;;;;;;50.67;22.92;;;1.70;81.10;;;-0.59;93.08;95012.81;4990962;28;20046;-64
2021/11/26 00:45:05;;;;;;;52.85;23.00;;;1.70;81.10;;;-0.57;92.51;95021.22;4943679;28;20061;-64
2021/11/26 00:47:31;;;;;;;61.50;24.17;;;1.70;81.00;;;-0.58;92.93;95011.88;4990456;28;20062;-64
2021/11/26 00:49:57;;;;;;;57.65;24.30;;;1.70;80.80;;;-0.58;92.51;95022.19;4957640;28;20108;-64
2021/11/26 00:52:22;;;;;;;59.72;24.83;;;1.70;80.80;;;-0.58;92.95;95028.16;4989109;28;20116;-64
2021/11/26 00:54:48;;;;;;;57.67;24.00;;;1.70;80.70;;;-0.57;93.35;95013.50;4990325;28;20106;-64
2021/11/26 00:57:14;;;;;;;63.22;25.67;;;1.70;81.00;;;-0.57;92.49;95013.50;4990980;28;20426;-64
2021/11/26 00:59:40;;;;;;;62.83;25.48;;;1.70;80.70;;;-0.59;92.71;95003.31;4990152;28;20065;-64
2021/11/26 01:02:06;;;;;;;58.05;24.90;;;1.70;81.00;;;-0.58;92.78;94999.75;4974235;28;20470;-64
2021/11/26 01:04:32;;;;;;;60.55;25.65;;;1.70;81.10;;;-0.59;92.96;94989.59;4990179;28;20046;-64
2021/11/26 01:06:58;;;;;;;59.58;25.02;;;1.80;81.20;;;-0.57;93.30;94987.66;4972940;28;20046;-64
2021/11/26 01:09:23;;;;;;;62.42;25.75;;;1.70;81.30;;;-0.63;92.73;94976.97;4991077;28;20057;-65
2021/11/26 01:11:49;;;;;;;62.97;25.55;;;1.80;81.20;;;-0.53;92.95;94983.81;4973201;28;20026;-64
2021/11/26 01:14:15;;;;;;;67.70;26.33;;;1.80;81.30;;;-0.53;93.24;94973.50;4937375;28;20129;-64
2021/11/26 01:16:41;;;;;;;67.40;26.50;;;1.80;81.10;;;-0.52;92.98;94977.69;5002985;28;20034;-64
2021/11/26 01:19:06;;;;;;;62.03;26.30;;;1.80;81.10;;;-0.52;93.34;94975.09;4973351;28;20038;-64
2021/11/26 01:21:32;;;;;;;65.93;26.00;;;1.80;80.80;;;-0.51;93.49;94969.78;4989858;28;20167;-64
2021/11/26 01:23:58;;;;;;;69.18;27.48;;;1.90;81.00;;;-0.47;92.94;94978.06;4989421;28;20037;-64
2021/11/26 01:26:24;;;;;;;64.50;26.55;;;1.80;81.00;;;-0.47;93.47;94978.06;4972722;28;20042;-64
2021/11/26 01:28:50;;;;;;;70.88;27.88;;;1.80;81.00;;;-0.47;93.31;94975.47;4996169;28;20398;-64
2021/11/26 01:31:16;;;;;;;63.95;25.13;;;1.80;81.20;;;-0.50;93.17;94962.84;4989252;28;20054;-64
2021/11/26 01:33:42;;;;;;;69.53;26.63;;;1.80;81.20;;;-0.49;93.34;94954.16;4986082;28;20110;-64
2021/11/26 01:36:08;;;;;;;72.68;27.65;;;1.80;81.20;;;-0.51;92.94;94951.72;4972694;28;20085;-64
2021/11/26 01:38:34;;;;;;;71.97;27.38;;;1.80;81.00;;;-0.56;92.95;94953.94;4972702;28;20057;-64
2021/11/26 01:41:00;;;;;;;70.75;28.23;;;1.80;81.00;;;-0.52;92.97;94960.44;4989569;28;20597;-64
2021/11/26 01:43:25;;;;;;;68.60;25.80;;;1.80;81.10;;;-0.54;93.17;94949.44;4969537;28;20037;-64
2021/11/26 01:46:00;;;;;;;68.32;26.65;;;1.70;81.20;;;-0.54;93.38;94956.38;4963104;28;20038;-64
2021/11/26 01:48:26;;;;;;;66.38;27.27;;;1.80;81.10;;;-0.53;92.81;94953.63;4954005;28;20038;-64
2021/11/26 01:50:54;;;;;;;68.07;26.65;;;1.80;81.10;;;-0.53;93.22;94958.81;5006292;23;20500;-66
2021/11/26 01:53:19;;;;;;;69.97;26.05;;;1.80;81.20;;;-0.53;93.14;94950.25;4949703;28;20046;-66
2021/11/26 01:55:45;;;;;;;67.82;25.88;;;1.70;80.90;;;-0.56;93.09;94947.97;4972553;28;20419;-65
2021/11/26 01:58:11;;;;;;;68.15;26.38;;;1.70;80.90;;;-0.56;93.22;94942.78;4973096;28;20129;-65
2021/11/26 02:00:39;;;;;;;63.22;25.80;;;1.70;81.20;;;-0.56;93.27;94938.44;4989110;28;20141;-67
2021/11/26 02:03:05;;;;;;;68.80;26.75;;;1.70;81.10;;;-0.56;93.67;94927.31;4973094;28;20038;-66
2021/11/26 02:05:31;;;;;;;65.28;26.05;;;1.70;81.30;;;-0.57;93.41;94930.84;4957193;28;20058;-68
2021/11/26 02:07:56;;;;;;;64.07;26.15;;;1.70;81.30;;;-0.56;93.01;94909.22;4961282;28;20057;-66
2021/11/26 02:10:22;;;;;;;66.90;26.63;;;1.70;81.00;;;-0.57;93.46;94912.78;4989112;28;20027;-65
2021/11/26 02:12:48;;;;;;;60.28;25.52;;;1.70;81.00;;;-0.59;93.08;94917.28;4956089;28;20030;-66
2021/11/26 02:15:25;;;;;;;63.97;26.00;;;1.70;80.90;;;-0.58;93.12;94911.16;4957409;28;20506;-66
2021/11/26 02:17:52;;;;;;;63.78;24.38;;;1.70;80.80;;;-0.59;92.87;94901.78;4958848;28;20033;-66
2021/11/26 02:20:23;;;;;;;57.05;24.98;;;1.70;81.00;;;-0.59;93.04;94901.78;4956514;28;20500;-66
2021/11/26 02:22:49;;;;;;;;;;;1.70;80.90;;;-0.58;93.33;94908.56;4973485;28;20124;-65
2021/11/26 02:25:15;;;;;;;61.53;25.60;;;1.70;80.70;;;-0.59;93.20;94906.94;4968544;28;19924;-66
2021/11/26 02:27:41;;;;;;;62.05;23.98;;;1.70;80.80;;;-0.60;92.51;94900.16;4955808;28;20112;-66
2021/11/26 02:30:18;;;;;;;65.90;26.98;;;1.70;80.50;;;-0.59;93.00;94899.19;4956878;28;20510;-66
2021/11/26 02:32:51;;;;;;;59.30;25.10;;;1.70;80.70;;;-0.60;92.52;94895.81;4973303;28;20034;-67
2021/11/26 02:35:17;;;;;;;59.10;23.30;;;1.70;80.40;;;-0.60;92.18;94885.47;4988580;28;20106;-67
2021/11/26 02:37:43;;;;;;;67.72;26.25;;;1.70;80.40;;;-0.60;92.23;94887.25;4941620;28;20031;-67
2021/11/26 02:40:12;;;;;;;60.42;25.63;;;1.70;80.50;;;-0.59;92.87;94875.97;4978508;28;20035;-68
2021/11/26 02:42:38;;;;;;;55.60;25.30;;;1.70;80.50;;;-0.57;92.40;94874.03;4956516;28;20505;-65
2021/11/26 02:45:05;;;;;;;58.03;24.25;;;1.70;80.30;;;-0.56;92.56;94873.06;4972818;28;20402;-66
2021/11/26 02:47:31;;;;;;;56.45;25.00;;;1.70;80.10;;;-0.56;92.59;94875.66;4972276;28;20042;-65
2021/11/26 02:49:57;;;;;;;56.17;24.40;;;1.80;80.10;;;-0.56;92.08;94875.66;4961984;28;20035;-66
2021/11/26 02:52:23;;;;;;;56.72;24.83;;;1.70;79.90;;;-0.58;91.80;94862.09;4987706;28;20097;-65
2021/11/26 02:54:51;;;;;;;58.72;24.13;;;1.70;79.70;;;-0.58;91.89;94859.50;4972665;28;20066;-67
2021/11/26 02:57:17;;;;;;;52.75;24.17;;;1.70;79.60;;;-0.59;92.03;94860.47;4956327;28;20522;-66
2021/11/26 02:59:42;;;;;;;55.83;23.70;;;1.70;79.50;;;-0.59;91.89;94860.47;4988719;28;20040;-66
2021/11/26 03:02:08;;;;;;;57.78;23.88;;;1.70;79.90;;;-0.60;91.92;94854.50;4989246;28;20406;-67
2021/11/26 03:04:34;;;;;;;55.35;23.92;;;1.70;80.10;;;-0.59;91.90;94848.38;4971454;28;20042;-65
2021/11/26 03:07:02;;;;;;;53.03;23.75;;;1.70;80.20;;;-0.60;91.66;94858.84;4939404;28;20567;-66
2021/11/26 03:09:27;;;;;;;58.53;25.45;;;1.70;80.00;;;-0.64;91.62;94843.66;4988103;28;20038;-66
2021/11/26 03:11:53;;;;;;;58.63;24.00;;;1.60;80.50;;;-0.63;92.24;94829.78;4956656;28;20652;-66
2021/11/26 03:14:19;;;;;;;55.53;24.17;;;1.70;80.60;;;-0.64;92.65;94830.75;4955497;28;20053;-67
2021/11/26 03:16:45;;;;;;;55.67;24.35;;;1.60;80.50;;;-0.64;92.12;94828.16;4972446;28;20121;-66
2021/11/26 03:19:10;;;;;;;58.53;23.73;;;1.70;80.40;;;-0.66;92.34;94824.94;4956197;28;20034;-66
2021/11/26 03:21:36;;;;;;;58.00;23.98;;;1.60;80.80;;;-0.66;91.85;94824.94;4972395;28;20052;-65
2021/11/26 03:24:02;;;;;;;53.65;22.50;;;1.60;80.70;;;-0.67;92.38;94820.72;4988461;28;20066;-66
2021/11/26 03:26:28;;;;;;;60.30;24.30;;;1.60;80.70;;;-0.67;92.62;94823.31;4955308;28;20073;-65
2021/11/26 03:28:53;;;;;;;57.70;22.83;;;1.50;81.00;;;-0.66;92.11;94829.28;4969587;28;20035;-66
2021/11/26 03:31:19;;;;;;;56.80;24.67;;;1.60;80.70;;;-0.69;92.64;94825.22;4972152;28;20434;-66
2021/11/26 03:33:45;;;;;;;60.78;24.23;;;1.60;80.70;;;-0.68;92.70;94837.19;4953649;28;20027;-66
2021/11/26 03:36:10;;;;;;;61.22;23.95;;;1.60;80.60;;;-0.68;92.22;94826.84;4992333;28;20124;-66
2021/11/26 03:38:36;;;;;;;54.70;23.15;;;1.60;80.70;;;-0.67;92.62;94825.09;4975408;28;20125;-66
2021/11/26 03:41:02;;;;;;;57.15;24.50;;;1.60;80.60;;;-0.67;91.96;94818.16;4992531;28;20093;-66
2021/11/26 03:43:28;;;;;;;56.72;23.48;;;1.60;80.50;;;-0.68;92.42;94821.69;4975513;28;20058;-66
2021/11/26 03:45:53;;;;;;;57.53;23.70;;;1.60;80.20;;;-0.67;92.33;94812.97;4975657;28;20096;-66
2021/11/26 03:48:19;;;;;;;60.38;26.30;;;1.70;80.50;;;-0.66;92.58;94814.59;4991254;28;20133;-66
2021/11/26 03:50:45;;;;;;;58.72;24.77;;;1.70;80.30;;;-0.66;92.50;94809.44;4959756;28;20027;-65
2021/11/26 03:53:11;;;;;;;56.88;24.20;;;1.70;80.60;;;-0.66;92.65;94804.28;4991525;28;20034;-66
2021/11/26 03:55:36;;;;;;;53.28;23.08;;;1.70;80.70;;;-0.67;92.32;94802.66;4956049;28;20126;-66
2021/11/26 03:58:02;;;;;;;77.38;33.08;;;1.60;80.80;;;-0.67;92.72;94791.53;4999412;28;20027;-66
2021/11/26 04:00:28;;;;;;;63.05;27.20;;;1.60;80.90;;;-0.68;92.43;94790.72;4975069;28;20042;-66
2021/11/26 04:02:54;;;;;;;73.82;30.75;;;1.60;81.10;;;-0.67;92.69;94787.16;4956175;28;20035;-67
2021/11/26 04:05:20;;;;;;;63.17;24.63;;;1.60;81.20;;;-0.66;93.09;94788.78;4992624;28;20073;-67
2021/11/26 04:07:45;;;;;;;59.80;23.02;;;1.60;81.20;;;-0.66;92.74;94781.03;4975608;28;20529;-66
2021/11/26 04:10:12;;;;;;;59.95;23.08;;;1.70;81.30;;;-0.65;93.05;94779.25;4991093;28;20419;-66
2021/11/26 04:12:38;;;;;;;60.35;21.83;;;1.60;81.40;;;-0.67;92.97;94779.41;4974674;28;20509;-66
2021/11/26 04:15:06;;;;;;;54.45;20.73;;;1.60;81.40;;;-0.65;92.73;94785.25;4971854;28;20034;-67
2021/11/26 04:17:33;;;;;;;57.25;23.02;;;1.70;81.60;;;-0.63;93.32;94777.34;4968090;28;20417;-66
2021/11/26 04:19:59;;;;;;;56.00;23.10;;;1.70;81.40;;;-0.63;93.21;94780.72;4954831;28;20112;-68
2021/11/26 04:22:25;;;;;;;57.63;22.23;;;1.60;81.20;;;-0.64;93.34;94771.38;4968092;28;20066;-68
2021/11/26 04:24:50;;;;;;;60.83;23.70;;;1.50;81.50;;;-0.66;92.88;94772.47;4972111;28;20120;-66
2021/11/26 04:27:16;;;;;;;60.25;23.38;;;1.50;81.60;;;-0.68;93.03;94780.38;4974164;28;20096;-68
2021/11/26 04:29:42;;;;;;;64.10;23.67;;;1.40;81.80;;;-0.69;93.11;94773.56;4979226;28;20168;-70
2021/11/26 04:32:08;;;;;;;77.20;32.13;;;1.50;82.10;;;-0.69;93.37;94773.56;4974619;28;20030;-65
2021/11/26 04:34:34;;;;;;;102.38;47.40;;;1.50;82.10;;;-0.68;93.22;94775.22;4989836;28;20039;-67
2021/11/26 04:37:00;;;;;;;62.90;26.08;;;1.60;82.20;;;-0.67;93.09;94776.84;4958599;28;20117;-67
2021/11/26 04:39:25;;;;;;;72.40;27.52;;;1.60;81.80;;;-0.67;93.27;94776.84;4990291;28;20050;-65
2021/11/26 04:41:51;;;;;;;72.65;26.92;;;1.50;81.90;;;-0.70;93.13;94777.13;4971633;28;20069;-66
2021/11/26 04:44:17;;;;;;;74.90;28.50;;;1.40;82.10;;;-0.73;93.58;94781.78;4957390;28;20065;-65
2021/11/26 04:46:43;;;;;;;70.47;25.88;;;1.30;82.60;;;-0.74;93.03;94780.97;4941175;28;20034;-66
2021/11/26 04:49:08;;;;;;;75.65;29.08;;;1.30;82.80;;;-0.75;93.97;94771.59;5003891;28;20096;-65
2021/11/26 04:51:34;;;;;;;72.65;26.38;;;1.40;82.50;;;-0.74;93.87;94780.16;4989722;28;20497;-65
2021/11/26 04:54:00;;;;;;;65.28;25.98;;;1.40;82.40;;;-0.74;93.45;94778.38;4958076;28;20080;-65
2021/11/26 04:56:26;;;;;;;72.97;24.35;;;1.40;82.40;;;-0.74;93.76;94775.00;4991084;28;20092;-66
2021/11/26 04:58:51;;;;;;;75.45;30.10;;;1.40;82.30;;;-0.75;93.48;94775.97;5006640;28;20030;-66
2021/11/26 05:01:17;;;;;;;78.72;32.15;;;1.40;82.60;;;-0.76;93.81;94769.97;4957909;28;20085;-66
2021/11/26 05:03:43;;;;;;;66.75;25.50;;;1.40;82.80;;;-0.76;93.55;94772.56;4989940;28;20109;-66
2021/11/26 05:06:09;;;;;;;67.28;24.63;;;1.50;82.30;;;-0.74;93.93;94765.47;4990242;28;20456;-66
2021/11/26 05:08:34;;;;;;;61.28;24.60;;;1.60;82.20;;;-0.71;93.55;94767.75;4989449;28;20045;-65
2021/11/26 05:11:00;;;;;;;60.47;22.58;;;1.60;82.00;;;-0.70;93.74;94769.38;5005861;28;20034;-66
2021/11/26 05:13:28;;;;;;;64.20;22.85;;;1.60;81.90;;;-0.70;94.04;94761.63;4986002;28;20753;-66
2021/11/26 05:15:55;;;;;;;59.50;22.25;;;1.50;82.20;;;-0.72;93.55;94753.22;5002629;28;20054;-66
2021/11/26 05:18:23;;;;;;;62.42;23.63;;;1.40;82.20;;;-0.72;93.67;94748.06;4959461;28;20089;-66
2021/11/26 05:20:51;;;;;;;64.40;24.88;;;1.40;82.50;;;-0.69;94.18;94741.78;4951923;28;20122;-65
2021/11/26 05:23:17;;;;;;;68.45;25.20;;;1.50;82.70;;;-0.70;93.80;94735.81;4922939;28;20479;-66
2021/11/26 05:25:43;;;;;;;71.25;24.50;;;1.40;82.80;;;-0.71;94.29;94744.50;4938786;28;20070;-66
2021/11/26 05:28:08;;;;;;;69.93;25.05;;;1.40;83.10;;;-0.72;94.09;94735.16;4980782;28;20118;-67
2021/11/26 05:30:34;;;;;;;71.18;27.45;;;1.60;83.00;;;-0.69;94.35;94737.41;4990639;28;20038;-65
2021/11/26 05:33:01;;;;;;;68.60;27.40;;;1.60;82.70;;;-0.68;94.67;94731.31;4989830;28;20100;-65
2021/11/26 05:35:26;;;;;;;60.30;23.05;;;1.60;82.90;;;-0.68;94.34;94717.56;4953783;28;20042;-71
2021/11/26 05:37:52;;;;;;;60.10;21.23;;;1.50;82.70;;;-0.69;94.71;94724.50;4979636;28;20027;-70
2021/11/26 05:40:19;;;;;;;55.75;20.80;;;1.60;82.70;;;-0.65;94.32;94727.63;4972991;28;20068;-73
2021/11/26 05:42:45;;;;;;;65.22;22.73;;;1.60;82.60;;;-0.64;94.45;94724.88;4957512;28;20597;-74
2021/11/26 05:45:11;;;;;;;60.95;21.65;;;1.70;82.30;;;-0.64;94.76;94719.72;4973197;28;20508;-69
2021/11/26 05:47:37;;;;;;;61.60;22.30;;;1.60;82.40;;;-0.63;95.02;94731.66;4956899;28;20111;-67
2021/11/26 05:50:06;;;;;;;55.67;20.60;;;1.60;82.20;;;-0.62;94.74;94725.53;4972507;28;20382;-67
2021/11/26 05:52:32;;;;;;;57.00;20.73;;;1.70;82.20;;;-0.61;94.16;94723.75;4937665;28;20035;-67
2021/11/26 05:54:58;;;;;;;54.33;21.17;;;1.60;82.10;;;-0.59;94.16;94731.34;4998480;28;20037;-67
2021/11/26 05:57:24;;;;;;;60.38;21.00;;;1.60;82.00;;;-0.64;94.21;94719.72;4972010;28;20046;-68
2021/11/26 05:59:49;;;;;;;56.50;20.98;;;1.70;81.90;;;-0.62;94.27;94722.97;4972019;28;20074;-70
2021/11/26 06:02:15;;;;;;;54.72;19.95;;;1.60;81.90;;;-0.61;93.97;94728.94;4968388;28;20034;-65
2021/11/26 06:04:41;;;;;;;54.15;20.30;;;1.60;82.20;;;-0.63;94.25;94716.19;4952986;28;20039;-64
2021/11/26 06:07:07;;;;;;;58.85;21.10;;;1.60;81.80;;;-0.63;93.91;94715.38;4960370;28;20034;-64
2021/11/26 06:09:32;;;;;;;56.67;22.40;;;1.60;81.90;;;-0.63;93.67;94713.59;4955273;28;20042;-64
2021/11/26 06:11:58;;;;;;;58.88;22.70;;;1.60;81.90;;;-0.62;94.29;94712.63;4971332;28;20039;-65
2021/11/26 06:14:24;;;;;;;65.15;23.33;;;1.60;81.70;;;-0.63;93.84;94711.00;4987795;28;20035;-66
2021/11/26 06:16:49;;;;;;;63.58;22.13;;;1.50;82.10;;;-0.65;93.68;94707.78;4986940;28;20030;-70
2021/11/26 06:19:15;;;;;;;59.20;21.60;;;1.60;82.10;;;-0.64;94.05;94700.84;4988779;28;20034;-69
2021/11/26 06:21:41;;;;;;;60.95;23.02;;;1.60;82.20;;;-0.60;93.89;94704.72;4939900;28;20034;-65
2021/11/26 06:24:07;;;;;;;60.53;22.05;;;1.70;82.00;;;-0.60;94.48;94704.72;4972245;28;20038;-65
2021/11/26 06:26:33;;;;;;;100.45;44.55;;;1.60;81.90;;;-0.60;93.96;94694.41;4987581;28;20065;-68
2021/11/26 06:28:59;;;;;;;63.47;25.77;;;1.70;82.00;;;-0.58;93.89;94689.88;4988729;28;20369;-70
2021/11/26 06:31:25;;;;;;;70.82;30.30;;;1.70;81.90;;;-0.57;94.39;94685.53;4987766;28;20085;-70
2021/11/26 06:33:50;;;;;;;69.57;27.75;;;1.70;81.90;;;-0.53;94.45;94689.41;4986497;28;20027;-65
2021/11/26 06:36:16;;;;;;;65.40;24.70;;;1.80;81.90;;;-0.52;94.27;94696.19;4955091;28;20465;-66
2021/11/26 06:38:43;;;;;;;70.88;24.63;;;1.80;81.80;;;-0.55;94.53;94681.81;4987314;28;20042;-67
2021/11/26 06:41:09;;;;;;;62.17;23.48;;;1.70;82.00;;;-0.54;94.32;94682.63;4950056;28;21693;-67
2021/11/26 06:43:34;;;;;;;67.97;24.92;;;1.70;81.60;;;-0.55;93.84;94686.19;4983284;28;20129;-66
2021/11/26 06:46:00;;;;;;;67.43;25.17;;;1.70;81.70;;;-0.54;93.78;94674.88;4955036;28;20105;-64
2021/11/26 06:48:27;;;;;;;66.15;24.92;;;1.70;81.70;;;-0.54;93.79;94670.53;4969885;28;20494;-65
2021/11/26 06:50:52;;;;;;;67.03;24.25;;;1.70;81.80;;;-0.54;93.71;94677.47;4987546;28;20593;-67
2021/11/26 06:53:18;;;;;;;68.53;25.63;;;1.70;81.70;;;-0.54;94.11;94669.72;4955104;28;20219;-67
2021/11/26 06:55:45;;;;;;;66.50;25.17;;;1.70;81.50;;;-0.51;94.04;94664.22;4967731;28;20035;-67
2021/11/26 06:58:11;;;;;;;65.13;24.88;;;1.80;81.50;;;-0.52;93.59;94660.03;4971084;28;20037;-65
2021/11/26 07:00:36;;;;;;;69.22;24.73;;;1.80;81.20;;;-0.51;93.99;94662.47;4954605;28;20035;-67
2021/11/26 07:03:02;;;;;;;65.40;24.17;;;1.80;81.10;;;-0.50;93.80;94658.09;4970962;28;20027;-66
2021/11/26 07:05:28;;;;;;;72.28;25.05;;;1.80;81.30;;;-0.50;93.92;94658.09;4970917;28;20031;-66
2021/11/26 07:07:54;;;;;;;74.03;25.52;;;1.80;81.40;;;-0.50;93.57;94655.53;4971422;28;20118;-67
2021/11/26 07:10:19;;;;;;;70.80;25.48;;;1.80;81.30;;;-0.50;94.03;94656.31;4952145;28;20530;-68
2021/11/26 07:12:45;;;;;;;76.45;26.13;;;1.70;81.40;;;-0.49;93.67;94665.69;4970959;28;20030;-66
2021/11/26 07:15:12;;;;;;;77.82;25.80;;;1.70;81.80;;;-0.49;93.66;94663.09;4971324;28;20084;-66
2021/11/26 07:17:38;;;;;;;70.75;25.35;;;1.80;81.50;;;-0.45;93.77;94663.63;4952742;28;20510;-65
2021/11/26 07:20:05;;;;;;;79.38;27.45;;;1.80;81.70;;;-0.44;94.23;94662.66;4972534;28;20045;-67
2021/11/26 07:22:31;;;;;;;72.40;26.60;;;1.90;81.70;;;-0.42;94.15;94674.47;4969097;28;20046;-67
2021/11/26 07:24:57;;;;;;;79.85;26.17;;;1.90;81.70;;;-0.41;94.15;94667.50;4985554;28;20035;-66
2021/11/26 07:27:23;;;;;;;74.18;25.83;;;2.00;81.60;;;-0.39;94.22;94665.59;4950328;28;20046;-67
2021/11/26 07:29:48;;;;;;;69.57;27.02;;;2.00;81.30;;;-0.39;94.08;94665.59;4970405;28;20429;-67
2021/11/26 07:32:14;;;;;;;67.20;24.60;;;2.00;81.20;;;-0.38;93.54;94656.88;4942852;28;20521;-71
2021/11/26 07:34:40;;;;;;;76.32;28.15;;;1.90;81.20;;;-0.37;93.37;94655.91;4962899;28;20454;-62
2021/11/26 07:37:09;;;;;;;78.90;28.08;;;1.90;81.40;;;-0.39;93.98;94650.88;4968467;28;20173;-64
2021/11/26 07:39:37;;;;;;;76.85;27.55;;;1.90;81.40;;;-0.37;93.87;94654.13;4951099;28;20147;-63
2021/11/26 07:42:04;;;;;;;78.07;27.35;;;2.00;81.20;;;-0.36;93.92;94647.19;4971594;28;20058;-63
2021/11/26 07:44:32;;;;;;;81.55;28.13;;;2.00;81.30;;;-0.34;94.31;94660.75;4937582;28;20158;-63
2021/11/26 07:46:59;;;;;;;80.72;28.10;;;2.00;81.30;;;-0.35;94.10;94653.97;4973044;28;20042;-64
2021/11/26 07:49:28;;;;;;;77.70;26.55;;;1.90;81.30;;;-0.34;93.97;94655.56;4967870;28;20917;-64
2021/11/26 07:51:57;;;;;;;76.97;28.60;;;2.00;81.50;;;-0.33;94.04;94645.09;4966352;28;20461;-65
2021/11/26 07:54:23;;;;;;;78.50;28.27;;;2.00;81.60;;;-0.31;94.38;94639.75;4981479;28;20070;-64
2021/11/26 07:56:49;;;;;;;82.70;27.92;;;2.10;81.40;;;-0.30;94.04;94643.97;4953388;28;20394;-64
2021/11/26 07:59:14;;;;;;;91.78;28.30;;;2.10;81.20;;;-0.28;93.93;94642.03;4986323;28;20096;-65
2021/11/26 08:01:40;;;;;;;79.18;27.42;;;2.10;81.00;;;-0.27;94.11;94643.63;4985651;28;20054;-65
2021/11/26 08:04:06;;;;;;;78.05;27.15;;;2.00;81.00;;;-0.30;93.80;94649.13;4986002;28;20061;-66
2021/11/26 08:06:32;;;;;;;88.55;28.98;;;2.00;81.40;;;-0.31;93.84;94637.97;4985363;28;20046;-65
2021/11/26 08:08:57;;;;;;;88.75;28.40;;;1.90;81.90;;;-0.34;93.80;94642.66;4970567;28;20035;-68
2021/11/26 08:11:23;;;;;;;93.30;29.35;;;2.00;81.80;;;-0.33;94.10;94644.28;4952154;28;20590;-61
2021/11/26 08:13:49;;;;;;;96.57;30.80;;;1.90;81.60;;;-0.32;94.14;94640.72;4984649;28;20062;-66
2021/11/26 08:16:15;;;;;;;108.20;30.42;;;1.90;82.10;;;-0.31;93.96;94632.00;4966496;28;20061;-63
2021/11/26 08:18:40;;;;;;;94.13;28.13;;;2.00;81.90;;;-0.30;93.92;94628.47;4987833;28;20042;-63
2021/11/26 08:21:06;;;;;;;91.88;28.13;;;2.00;81.90;;;-0.30;94.62;94618.13;4972724;28;20418;-63
2021/11/26 08:23:32;;;;;;;92.82;29.70;;;2.00;82.30;;;-0.31;94.47;94611.34;4973065;28;20370;-64
2021/11/26 08:25:59;;;;;;;89.75;28.30;;;1.90;82.10;;;-0.32;94.51;94599.41;4988629;28;20042;-67
2021/11/26 08:28:26;;;;;;;94.47;28.83;;;1.90;82.20;;;-0.33;94.66;94597.78;4957273;28;20540;-71
2021/11/26 08:30:51;;;;;;;93.25;28.88;;;1.90;82.30;;;-0.36;94.43;94588.56;4990553;28;20398;-71
2021/11/26 08:33:17;;;;;;;82.53;26.88;;;1.80;82.10;;;-0.33;94.44;94593.41;4973360;28;20031;-71
2021/11/26 08:35:43;;;;;;;77.15;26.20;;;1.90;82.40;;;-0.30;94.78;94587.13;4990210;28;20046;-71
2021/11/26 08:38:09;;;;;;;92.43;29.17;;;2.00;82.30;;;-0.29;94.36;94583.56;4958092;28;20113;-71
2021/11/26 08:40:35;;;;;;;76.70;24.40;;;1.90;81.90;;;-0.30;94.27;94576.78;4973765;28;20498;-72
2021/11/26 08:43:01;;;;;;;71.13;25.67;;;1.90;82.30;;;-0.28;94.64;94572.28;4970705;28;20034;-66
2021/11/26 08:45:27;;;;;;;73.43;26.60;;;2.10;81.90;;;-0.25;94.11;94578.88;4956468;28;20049;-69
2021/11/26 08:47:53;;;;;;;70.35;26.30;;;2.00;81.80;;;-0.22;94.03;94583.75;4977389;28;20031;-68
2021/11/26 08:50:20;;;;;;;75.95;26.05;;;2.10;81.80;;;-0.21;94.15;94575.84;4936151;28;20529;-67
2021/11/26 08:52:46;;;;;;;78.20;26.58;;;2.10;81.70;;;-0.21;94.68;94580.22;4960256;28;20089;-67
2021/11/26 08:55:15;;;;;;;82.70;27.08;;;1.90;82.30;;;-0.22;94.79;94565.69;4972724;28;20122;-68
2021/11/26 08:57:47;;;;;;;81.07;27.20;;;2.00;82.90;;;-0.21;94.38;94581.03;4956124;28;20045;-67
2021/11/26 09:00:13;;;;;;;78.80;26.40;;;2.10;83.10;;;-0.16;95.19;94577.94;4964168;28;20030;-67
2021/11/26 09:02:39;;;;;;;84.10;29.73;;;2.10;83.40;;;-0.12;95.76;94577.47;4970886;28;20043;-68
2021/11/26 09:05:05;;;;;;;92.63;32.92;;;2.20;83.20;;;-0.07;95.88;94593.28;4956381;28;20053;-67
2021/11/26 09:07:31;;;;;;;72.60;26.25;;;2.20;83.00;;;-0.06;94.78;94594.91;4973113;28;20038;-68
2021/11/26 09:09:57;;;;;;;90.18;30.98;;;2.00;81.90;;;-0.04;94.74;94598.13;4970837;28;20069;-64
2021/11/26 09:12:25;;;;;;;99.85;41.40;;;2.20;82.70;;;-0.02;94.79;94601.34;4987705;28;20081;-68
2021/11/26 09:14:50;;;;;;;74.70;26.42;;;2.20;82.70;;;-0.02;94.44;94605.72;4986622;28;20092;-67
2021/11/26 09:17:19;;;;;;;71.45;25.10;;;2.10;81.90;;;-0.01;94.12;94602.97;4971869;28;20307;-67
2021/11/26 09:19:46;;;;;;;70.93;24.50;;;2.10;81.60;;;0.01;93.96;94604.63;4989340;28;20125;-67
2021/11/26 09:22:11;;;;;;;72.47;23.83;;;2.20;81.10;;;0.01;94.00;94594.28;4939115;28;20130;-66
2021/11/26 09:24:37;;;;;;;68.47;23.95;;;2.20;81.00;;;0.02;93.74;94601.06;4988137;28;20045;-67
2021/11/26 09:27:03;;;;;;;71.90;23.83;;;2.20;81.10;;;0.02;93.90;94596.69;4970528;28;20030;-67
2021/11/26 09:29:28;;;;;;;69.28;23.40;;;2.20;80.80;;;0.02;93.80;94586.34;4972271;28;20542;-66
2021/11/26 09:31:54;;;;;;;64.10;22.50;;;2.20;80.60;;;0.01;93.50;94583.94;4986646;28;20480;-65
2021/11/26 09:34:20;;;;;;;66.63;23.92;;;2.20;80.60;;;0.01;93.44;94579.56;4936317;28;20042;-66
2021/11/26 09:36:46;;;;;;;65.90;22.92;;;2.20;80.80;;;0.03;93.61;94577.63;4995819;28;20066;-65
2021/11/26 09:39:11;;;;;;;63.55;23.52;;;2.20;81.10;;;0.04;93.43;94568.91;4937481;28;20031;-65
2021/11/26 09:41:37;;;;;;;61.70;22.38;;;2.30;80.60;;;0.06;93.21;94566.16;4950542;28;20038;-67
2021/11/26 09:44:03;;;;;;;65.30;22.13;;;2.30;80.80;;;0.07;93.43;94562.59;4971629;28;20716;-66
2021/11/26 09:46:33;;;;;;;60.10;22.55;;;2.40;80.60;;;0.08;93.49;94549.50;4954968;28;20046;-66
2021/11/26 09:48:59;;;;;;;60.88;23.55;;;2.30;80.30;;;0.10;93.07;94546.75;4955760;28;20097;-66
2021/11/26 09:51:25;;;;;;;63.38;23.15;;;2.30;80.60;;;0.10;93.11;94539.81;4954312;28;20779;-66
2021/11/26 09:53:51;;;;;;;61.50;21.48;;;2.40;80.00;;;0.12;92.95;94534.47;4954924;28;20617;-66
2021/11/26 09:56:17;;;;;;;64.20;22.88;;;2.40;80.30;;;0.12;93.30;94537.88;4950198;28;20049;-68
2021/11/26 09:58:43;;;;;;;60.55;22.52;;;2.40;80.30;;;0.15;93.54;94521.22;4969197;28;20050;-64
2021/11/26 10:01:09;;;;;;;56.97;22.15;;;2.40;80.00;;;0.20;92.61;94519.75;4966527;28;20035;-63
2021/11/26 10:03:49;;;;;;;55.33;21.65;;;2.50;79.40;;;0.21;92.07;94517.97;4969031;28;20085;-65
2021/11/26 10:06:44;;;;;;;55.55;21.25;;;2.50;79.40;;;0.23;92.14;94505.72;4946088;28;20134;-67
2021/11/26 10:09:17;;;;;;;61.67;22.00;;;2.50;79.30;;;0.24;92.77;94508.13;4990752;28;20039;-68